ROMMA est une association bénévole à but non lucratif. Votre soutien est indispensable : ADHERER à ROMMA ou FAIRE un DON

Nice - (06, Alpes-Maritimes)

Côte-d'Azur (190 m)   Longitude: 07° 14' E   Latitude: 43° 43' N Station partenaire n°136
 

Détail journalier du     <<     >>

Température Precipitation Humidité Pression Vent Dir Rafale Dir. rafale Ensol.
Heure (°C) (mm) (%) (hPa) (km/h) (km/h) (min)
01:00 15.5092101503NNE0
02:00 15.609010151---5N0
03:00 15.408910152NO8N0
04:00 15.409010141---50
05:00 15.209010141---60
06:00 14.9090101403NNO0
07:00 15.008910144NO8NNO0
08:00 14.808910151---6N0
09:00 17.3084101506NE50
10:00 18.308310153ESE11ESE50
11:00 18.608110155ESE16ESE10
12:00 19.107910156SE15ESE30
13:00 19.607710156SE16SSE60
14:00 18.907810147SSE15SSE60
15:00 19.107710147ESE15SE60
16:00 18.107910144ESE13ESE50
17:00 17.308110153ESE13ESE20
18:00 16.5087101503E0
19:00 16.6088101600---0
20:00 16.1090101600---0
21:00 15.9090101705NNO0
22:00 15.1090101705NNO0
23:00 15.908610171---6NNO0
minuit 15.408710171NNO5NNO0

Graphique du 29-10-2019

 

Serveur OMMA